Time;durP1;ratioP1;P1;durP2;ratioP2;P2;SDS_P1;SDS_P2;PMS_P1;PMS_P2;Temp;Humidity;BMP_temperature;BMP_pressure;BME280_temperature;BME280_humidity;BME280_pressure;Samples;Min_cycle;Max_cycle;Signal;HPM_P1;HPM_P2
2023/09/28 00:01:12;;;;;;;2.97;2.78;;;;;;;;;;5064345;28;20386;-80
2023/09/28 00:03:39;;;;;;;3.23;2.93;;;;;;;;;;5064974;28;20412;-79
2023/09/28 00:06:05;;;;;;;3.67;2.70;;;;;;;;;;5062182;28;20397;-79
2023/09/28 00:08:32;;;;;;;3.53;2.90;;;;;;;;;;5075301;28;20437;-79
2023/09/28 00:10:58;;;;;;;2.97;2.78;;;;;;;;;;5080740;28;20414;-79
2023/09/28 00:13:24;;;;;;;3.45;3.13;;;;;;;;;;5080646;28;20401;-80
2023/09/28 00:15:50;;;;;;;3.25;2.95;;;;;;;;;;5079853;28;20384;-79
2023/09/28 00:18:17;;;;;;;3.30;3.00;;;;;;;;;;5080243;28;20425;-80
2023/09/28 00:20:43;;;;;;;3.45;2.85;;;;;;;;;;5081037;28;20375;-79
2023/09/28 00:23:09;;;;;;;2.80;2.60;;;;;;;;;;5079963;28;20431;-80
2023/09/28 00:25:35;;;;;;;3.63;2.90;;;;;;;;;;5079752;28;20390;-80
2023/09/28 00:28:02;;;;;;;3.08;2.78;;;;;;;;;;5079596;28;20390;-80
2023/09/28 00:30:28;;;;;;;3.25;2.65;;;;;;;;;;5080278;28;20406;-80
2023/09/28 00:32:55;;;;;;;2.90;2.70;;;;;;;;;;5080101;28;20468;-80
2023/09/28 00:35:22;;;;;;;3.17;2.88;;;;;;;;;;5081168;28;20375;-80
2023/09/28 00:37:49;;;;;;;3.08;2.78;;;;;;;;;;5078556;28;20394;-81
2023/09/28 00:42:51;;;;;;;3.25;2.95;;;;;;;;;;5078794;28;20494;-80
2023/09/28 00:45:19;;;;;;;3.42;2.92;;;;;;;;;;5090758;28;20453;-80
2023/09/28 00:47:45;;;;;;;2.83;2.63;;;;;;;;;;5096363;28;20375;-79
2023/09/28 00:50:17;;;;;;;3.13;2.83;;;;;;;;;;5080230;28;20384;-80
2023/09/28 00:52:46;;;;;;;3.10;2.80;;;;;;;;;;5064316;28;20804;-80
2023/09/28 00:55:13;;;;;;;3.30;3.00;;;;;;;;;;5080435;28;20388;-79
2023/09/28 00:57:39;;;;;;;4.57;3.10;;;;;;;;;;5079811;28;20394;-79
2023/09/28 01:00:18;;;;;;;3.10;2.80;;;;;;;;;;5080092;28;20437;-80
2023/09/28 01:02:51;;;;;;;3.28;2.97;;;;;;;;;;5079933;28;20497;-79
2023/09/28 01:05:22;;;;;;;3.28;3.00;;;;;;;;;;5080172;28;20392;-80
2023/09/28 01:07:48;;;;;;;3.63;3.00;;;;;;;;;;5081733;28;20460;-80
2023/09/28 01:10:20;;;;;;;2.92;2.60;;;;;;;;;;5083583;28;20767;-80
2023/09/28 01:12:47;;;;;;;3.10;2.80;;;;;;;;;;5078680;28;20380;-80
2023/09/28 01:15:13;;;;;;;4.50;2.80;;;;;;;;;;5079702;28;20415;-80
2023/09/28 01:17:40;;;;;;;3.50;2.80;;;;;;;;;;5079405;28;20467;-80
2023/09/28 01:20:19;;;;;;;2.92;2.67;;;;;;;;;;5078991;28;20395;-80
2023/09/28 01:22:45;;;;;;;2.80;2.53;;;;;;;;;;5079405;28;20403;-80
2023/09/28 01:25:12;;;;;;;4.00;2.30;;;;;;;;;;5079732;28;20399;-80
2023/09/28 01:27:40;;;;;;;2.85;2.55;;;;;;;;;;5079048;28;20375;-80
2023/09/28 01:30:06;;;;;;;3.10;2.80;;;;;;;;;;5079776;28;20436;-80
2023/09/28 01:32:32;;;;;;;2.72;2.53;;;;;;;;;;5079695;28;20383;-80
2023/09/28 01:34:58;;;;;;;3.50;2.60;;;;;;;;;;5078934;28;20487;-79
2023/09/28 01:37:31;;;;;;;3.20;2.90;;;;;;;;;;5079459;28;20876;-79
2023/09/28 01:39:57;;;;;;;3.25;2.88;;;;;;;;;;5079210;28;20390;-80
2023/09/28 01:42:23;;;;;;;2.95;2.75;;;;;;;;;;5078929;28;20387;-79
2023/09/28 01:44:49;;;;;;;3.10;2.80;;;;;;;;;;5068948;28;20450;-80
2023/09/28 01:47:15;;;;;;;4.72;3.00;;;;;;;;;;5068125;28;20381;-81
2023/09/28 01:49:41;;;;;;;3.03;2.72;;;;;;;;;;5071277;28;20399;-79
2023/09/28 01:52:07;;;;;;;3.30;3.00;;;;;;;;;;5073044;28;20385;-80
2023/09/28 01:54:32;;;;;;;2.93;2.60;;;;;;;;;;5066252;28;20436;-79
2023/09/28 01:56:58;;;;;;;3.78;3.03;;;;;;;;;;5082550;28;20384;-79
2023/09/28 01:59:24;;;;;;;3.92;2.88;;;;;;;;;;5082294;28;20754;-79
2023/09/28 02:01:50;;;;;;;3.42;2.92;;;;;;;;;;5084359;28;20391;-79
2023/09/28 02:04:16;;;;;;;3.27;2.97;;;;;;;;;;5083303;28;20498;-80
2023/09/28 02:06:42;;;;;;;3.25;2.60;;;;;;;;;;5093135;28;20385;-79
2023/09/28 02:09:10;;;;;;;3.45;3.00;;;;;;;;;;5074596;28;20396;-80
2023/09/28 02:11:43;;;;;;;3.20;2.90;;;;;;;;;;5075452;28;20402;-80
2023/09/28 02:14:09;;;;;;;2.67;2.47;;;;;;;;;;5078246;28;20393;-80
2023/09/28 02:16:35;;;;;;;3.00;2.78;;;;;;;;;;5066969;28;20461;-79
2023/09/28 02:19:01;;;;;;;3.25;2.85;;;;;;;;;;5074931;28;20833;-82
2023/09/28 02:21:27;;;;;;;2.72;2.53;;;;;;;;;;5063472;28;20397;-80
2023/09/28 02:23:54;;;;;;;3.03;2.72;;;;;;;;;;5064974;28;20810;-82
2023/09/28 02:26:20;;;;;;;3.03;2.80;;;;;;;;;;5082071;28;20379;-80
2023/09/28 02:28:45;;;;;;;2.90;2.70;;;;;;;;;;5084209;28;20758;-79
2023/09/28 02:31:12;;;;;;;3.60;2.80;;;;;;;;;;5086021;28;20451;-79
2023/09/28 02:33:37;;;;;;;2.97;2.58;;;;;;;;;;5089817;28;20372;-80
2023/09/28 02:36:04;;;;;;;4.05;2.63;;;;;;;;;;5081953;28;20387;-79
2023/09/28 02:38:30;;;;;;;3.35;2.75;;;;;;;;;;5082793;28;20387;-79
2023/09/28 02:40:56;;;;;;;3.20;2.80;;;;;;;;;;5082332;28;20411;-79
2023/09/28 02:43:22;;;;;;;2.95;2.60;;;;;;;;;;5082062;28;20400;-80
2023/09/28 02:45:48;;;;;;;3.80;2.90;;;;;;;;;;5081880;28;20864;-80
2023/09/28 02:48:14;;;;;;;3.13;2.87;;;;;;;;;;5094184;28;20380;-80
2023/09/28 02:50:39;;;;;;;3.25;2.60;;;;;;;;;;5081654;28;20392;-79
2023/09/28 02:53:07;;;;;;;3.83;2.85;;;;;;;;;;5077081;28;20475;-79
2023/09/28 02:55:33;;;;;;;3.28;2.95;;;;;;;;;;5072130;28;20372;-80
2023/09/28 02:57:59;;;;;;;2.85;2.65;;;;;;;;;;5086224;28;20403;-80
2023/09/28 03:00:27;;;;;;;3.38;2.80;;;;;;;;;;5081377;28;20388;-80
2023/09/28 03:02:56;;;;;;;3.75;2.90;;;;;;;;;;5073078;28;20404;-80
2023/09/28 03:05:23;;;;;;;2.90;2.70;;;;;;;;;;5083610;28;20444;-79
2023/09/28 03:07:49;;;;;;;3.97;2.97;;;;;;;;;;5083731;28;20405;-79
2023/09/28 03:10:15;;;;;;;3.28;2.97;;;;;;;;;;5080921;28;20394;-80
2023/09/28 03:12:42;;;;;;;3.30;2.97;;;;;;;;;;5084590;28;20771;-80
2023/09/28 03:15:11;;;;;;;3.25;2.90;;;;;;;;;;5082464;28;20433;-80
2023/09/28 03:17:39;;;;;;;3.83;2.83;;;;;;;;;;5081254;28;20509;-80
2023/09/28 03:20:14;;;;;;;3.17;2.88;;;;;;;;;;5062993;28;20381;-80
2023/09/28 03:22:41;;;;;;;3.28;2.97;;;;;;;;;;5077593;28;20432;-80
2023/09/28 03:25:11;;;;;;;3.67;2.97;;;;;;;;;;5068841;28;20394;-80
2023/09/28 03:27:59;;;;;;;3.05;2.85;;;;;;;;;;5089099;28;20395;-79
2023/09/28 03:30:26;;;;;;;3.63;3.05;;;;;;;;;;5080317;28;20384;-79
2023/09/28 03:32:52;;;;;;;3.08;2.78;;;;;;;;;;5083127;28;20412;-79
2023/09/28 03:35:18;;;;;;;3.33;3.03;;;;;;;;;;5083757;28;20407;-79
2023/09/28 03:37:45;;;;;;;3.90;2.92;;;;;;;;;;5082083;28;20388;-79
2023/09/28 03:40:12;;;;;;;3.38;3.08;;;;;;;;;;5081638;28;20466;-80
2023/09/28 03:42:38;;;;;;;3.20;2.90;;;;;;;;;;5081184;28;20411;-82
2023/09/28 03:45:08;;;;;;;3.10;2.80;;;;;;;;;;5081757;28;20392;-80
2023/09/28 03:47:34;;;;;;;3.80;3.15;;;;;;;;;;5062940;28;20695;-80
2023/09/28 03:50:00;;;;;;;4.03;3.03;;;;;;;;;;5082917;28;20380;-81
2023/09/28 03:52:27;;;;;;;3.03;2.83;;;;;;;;;;5080800;28;20906;-80
2023/09/28 03:54:53;;;;;;;3.50;3.20;;;;;;;;;;5062347;28;20400;-81
2023/09/28 03:57:19;;;;;;;3.40;3.10;;;;;;;;;;5062533;28;20868;-81
2023/09/28 03:59:45;;;;;;;3.45;3.15;;;;;;;;;;5062955;28;20392;-81
2023/09/28 04:02:10;;;;;;;3.40;3.10;;;;;;;;;;5079686;28;20848;-81
2023/09/28 04:04:37;;;;;;;3.97;3.30;;;;;;;;;;5063215;28;20459;-81
2023/09/28 04:07:03;;;;;;;3.53;3.20;;;;;;;;;;5082099;28;20372;-81
2023/09/28 04:09:29;;;;;;;3.83;3.05;;;;;;;;;;5090778;28;20404;-81
2023/09/28 04:11:55;;;;;;;3.28;2.97;;;;;;;;;;5083464;28;20368;-81
2023/09/28 04:14:22;;;;;;;3.50;3.10;;;;;;;;;;5080809;28;20949;-82
2023/09/28 04:16:48;;;;;;;3.67;3.05;;;;;;;;;;5086908;28;20470;-81
2023/09/28 04:19:14;;;;;;;3.07;2.87;;;;;;;;;;5080201;28;20416;-81
2023/09/28 04:21:40;;;;;;;4.00;3.25;;;;;;;;;;5081985;28;20384;-81
2023/09/28 04:24:06;;;;;;;3.40;3.10;;;;;;;;;;5079629;28;20416;-80
2023/09/28 04:26:32;;;;;;;4.07;3.08;;;;;;;;;;5091210;28;20388;-80
2023/09/28 04:28:59;;;;;;;3.47;3.13;;;;;;;;;;5083336;28;20796;-80
2023/09/28 04:31:25;;;;;;;4.20;3.70;;;;;;;;;;5099097;28;20386;-80
2023/09/28 04:33:51;;;;;;;4.05;3.55;;;;;;;;;;5084881;28;20388;-80
2023/09/28 04:36:17;;;;;;;3.65;3.35;;;;;;;;;;5076843;28;20390;-81
2023/09/28 04:38:44;;;;;;;3.72;3.42;;;;;;;;;;5082849;28;20388;-81
2023/09/28 04:41:11;;;;;;;3.97;3.20;;;;;;;;;;5074912;28;20857;-81
2023/09/28 04:43:37;;;;;;;3.57;3.27;;;;;;;;;;5081150;28;20492;-81
2023/09/28 04:46:07;;;;;;;4.22;3.28;;;;;;;;;;5082128;28;20378;-80
2023/09/28 04:48:33;;;;;;;4.10;3.30;;;;;;;;;;5091110;28;20388;-81
2023/09/28 04:50:59;;;;;;;3.53;3.22;;;;;;;;;;5077545;28;20695;-82
2023/09/28 04:53:26;;;;;;;3.23;2.93;;;;;;;;;;5078251;28;20402;-81
2023/09/28 04:55:52;;;;;;;4.28;3.35;;;;;;;;;;5080589;28;20383;-82
2023/09/28 04:58:18;;;;;;;4.00;3.00;;;;;;;;;;5080821;28;20391;-81
2023/09/28 05:00:44;;;;;;;4.37;2.83;;;;;;;;;;5080984;28;20375;-81
2023/09/28 05:03:11;;;;;;;3.65;3.35;;;;;;;;;;5073830;28;20417;-81
2023/09/28 05:05:37;;;;;;;3.58;3.08;;;;;;;;;;5077099;28;20387;-81
2023/09/28 05:08:03;;;;;;;3.28;2.97;;;;;;;;;;5071589;28;20380;-81
2023/09/28 05:10:30;;;;;;;3.60;3.13;;;;;;;;;;5081207;28;20383;-80
2023/09/28 05:12:56;;;;;;;3.72;3.28;;;;;;;;;;5077941;28;20449;-80
2023/09/28 05:15:22;;;;;;;3.40;3.10;;;;;;;;;;5089301;28;20382;-80
2023/09/28 05:17:49;;;;;;;3.65;3.05;;;;;;;;;;5080439;28;20924;-80
2023/09/28 05:20:14;;;;;;;3.70;3.40;;;;;;;;;;5080146;28;20395;-80
2023/09/28 05:22:43;;;;;;;3.57;3.10;;;;;;;;;;5079526;28;20423;-80
2023/09/28 05:25:09;;;;;;;5.40;3.72;;;;;;;;;;5080332;28;20865;-80
2023/09/28 05:27:36;;;;;;;3.95;3.55;;;;;;;;;;5089194;28;20395;-80
2023/09/28 05:30:03;;;;;;;4.28;3.90;;;;;;;;;;5090001;28;20387;-80
2023/09/28 05:32:29;;;;;;;4.30;3.90;;;;;;;;;;5083886;28;20441;-80
2023/09/28 05:34:55;;;;;;;3.85;3.50;;;;;;;;;;5083334;28;20411;-81
2023/09/28 05:37:21;;;;;;;4.25;3.75;;;;;;;;;;5083266;28;20387;-80
2023/09/28 05:39:48;;;;;;;3.83;3.53;;;;;;;;;;5074576;28;20482;-81
2023/09/28 05:42:14;;;;;;;3.78;3.20;;;;;;;;;;5083586;28;20384;-81
2023/09/28 05:44:40;;;;;;;4.13;3.78;;;;;;;;;;5082332;28;20429;-81
2023/09/28 05:47:06;;;;;;;3.72;3.38;;;;;;;;;;5083327;28;20383;-81
2023/09/28 05:49:32;;;;;;;4.15;3.35;;;;;;;;;;5083414;28;20737;-80
2023/09/28 05:51:58;;;;;;;3.70;3.40;;;;;;;;;;5084230;28;20401;-81
2023/09/28 05:54:26;;;;;;;3.70;3.40;;;;;;;;;;5083718;28;20384;-80
2023/09/28 05:56:52;;;;;;;4.40;4.00;;;;;;;;;;5092682;28;20403;-81
2023/09/28 05:59:18;;;;;;;6.05;5.43;;;;;;;;;;5083356;28;20383;-80
2023/09/28 06:01:44;;;;;;;5.60;5.00;;;;;;;;;;5083816;28;20455;-80
2023/09/28 06:04:12;;;;;;;5.10;4.60;;;;;;;;;;5083375;28;20461;-80
2023/09/28 06:06:38;;;;;;;5.10;4.60;;;;;;;;;;5083281;28;20474;-80
2023/09/28 06:09:04;;;;;;;5.35;4.85;;;;;;;;;;5082637;28;20388;-80
2023/09/28 06:11:30;;;;;;;5.10;4.60;;;;;;;;;;5083357;28;20451;-80
2023/09/28 06:13:56;;;;;;;4.80;4.40;;;;;;;;;;5084483;28;20390;-81
2023/09/28 06:16:25;;;;;;;4.47;4.07;;;;;;;;;;5082447;28;20451;-81
2023/09/28 06:18:52;;;;;;;4.75;4.28;;;;;;;;;;5082463;28;20853;-81
2023/09/28 06:21:18;;;;;;;6.55;5.90;;;;;;;;;;5082547;28;20415;-80
2023/09/28 06:23:44;;;;;;;4.93;4.43;;;;;;;;;;5081356;28;20419;-81
2023/09/28 06:26:10;;;;;;;6.00;4.35;;;;;;;;;;5082708;28;20415;-81
2023/09/28 06:28:36;;;;;;;4.72;4.30;;;;;;;;;;5092396;28;20379;-80
2023/09/28 06:31:02;;;;;;;3.67;3.38;;;;;;;;;;5078409;28;20387;-81
2023/09/28 06:33:28;;;;;;;4.20;3.80;;;;;;;;;;5068241;28;20724;-81
2023/09/28 06:35:54;;;;;;;4.78;3.80;;;;;;;;;;5088109;28;20430;-81
2023/09/28 06:38:20;;;;;;;4.60;4.20;;;;;;;;;;5082459;28;20467;-81
2023/09/28 06:40:50;;;;;;;4.13;3.80;;;;;;;;;;5081709;28;20376;-81
2023/09/28 06:43:16;;;;;;;5.35;4.25;;;;;;;;;;5081950;28;20427;-80
2023/09/28 06:45:42;;;;;;;5.83;4.77;;;;;;;;;;5079146;28;20755;-81
2023/09/28 06:48:08;;;;;;;5.20;4.70;;;;;;;;;;5073004;28;20429;-80
2023/09/28 06:50:41;;;;;;;4.87;4.37;;;;;;;;;;5061571;28;20872;-81
2023/09/28 06:53:07;;;;;;;7.30;4.35;;;;;;;;;;5077622;28;20387;-81
2023/09/28 06:55:35;;;;;;;5.20;4.70;;;;;;;;;;5081060;28;20388;-81
2023/09/28 06:58:01;;;;;;;4.47;4.07;;;;;;;;;;5078402;28;20408;-81
2023/09/28 07:00:29;;;;;;;4.90;4.40;;;;;;;;;;5082169;28;20392;-80
2023/09/28 07:02:55;;;;;;;4.28;3.90;;;;;;;;;;5073035;28;20414;-80
2023/09/28 07:05:22;;;;;;;5.00;4.45;;;;;;;;;;5079967;28;20395;-81
2023/09/28 07:07:48;;;;;;;5.95;4.78;;;;;;;;;;5074426;28;20380;-80
2023/09/28 07:10:14;;;;;;;5.10;4.60;;;;;;;;;;5083194;28;20388;-81
2023/09/28 07:12:41;;;;;;;5.60;4.57;;;;;;;;;;5077048;28;20706;-80
2023/09/28 07:15:08;;;;;;;6.43;4.55;;;;;;;;;;5082105;28;20406;-80
2023/09/28 07:17:34;;;;;;;6.53;4.40;;;;;;;;;;5084811;28;20384;-80
2023/09/28 07:20:00;;;;;;;7.60;4.78;;;;;;;;;;5081028;28;20467;-80
2023/09/28 07:22:27;;;;;;;5.22;4.72;;;;;;;;;;5083211;28;20402;-81
2023/09/28 07:24:53;;;;;;;5.55;5.05;;;;;;;;;;5081384;28;20387;-80
2023/09/28 07:27:19;;;;;;;5.85;5.25;;;;;;;;;;5080442;28;20384;-80
2023/09/28 07:29:45;;;;;;;6.33;5.73;;;;;;;;;;5082336;28;20379;-80
2023/09/28 07:32:11;;;;;;;6.97;5.65;;;;;;;;;;5086653;28;20467;-80
2023/09/28 07:34:37;;;;;;;6.47;5.78;;;;;;;;;;5079653;28;20470;-80
2023/09/28 07:37:03;;;;;;;9.73;6.30;;;;;;;;;;5078856;28;20390;-80
2023/09/28 07:39:29;;;;;;;7.05;6.10;;;;;;;;;;5084436;28;20383;-79
2023/09/28 07:41:55;;;;;;;9.77;7.22;;;;;;;;;;5078141;28;20399;-80
2023/09/28 07:44:21;;;;;;;11.57;8.27;;;;;;;;;;5050465;28;20494;-80
2023/09/28 07:46:48;;;;;;;11.75;9.65;;;;;;;;;;5075494;28;20409;-80
2023/09/28 07:49:14;;;;;;;17.48;12.70;;;;;;;;;;5075923;28;20386;-81
2023/09/28 07:51:40;;;;;;;13.63;11.55;;;;;;;;;;5073213;28;20441;-80
2023/09/28 07:54:09;;;;;;;13.70;10.53;;;;;;;;;;5078537;28;20388;-81
2023/09/28 07:56:44;;;;;;;22.58;16.10;;;;;;;;;;5081704;28;20379;-81
2023/09/28 07:59:10;;;;;;;22.63;15.30;;;;;;;;;;5079467;28;20388;-80
2023/09/28 08:01:40;;;;;;;20.67;14.27;;;;;;;;;;5090708;28;20418;-80
2023/09/28 08:04:06;;;;;;;19.70;13.55;;;;;;;;;;5074853;28;20445;-80
2023/09/28 08:06:32;;;;;;;19.83;13.07;;;;;;;;;;5080768;28;20414;-81
2023/09/28 08:08:58;;;;;;;15.82;12.88;;;;;;;;;;5080579;28;20435;-80
2023/09/28 08:11:25;;;;;;;24.73;14.98;;;;;;;;;;5080196;28;20383;-81
2023/09/28 08:13:54;;;;;;;21.38;14.52;;;;;;;;;;5087515;28;20379;-80
2023/09/28 08:16:20;;;;;;;19.03;13.90;;;;;;;;;;5082682;28;20410;-80
2023/09/28 08:18:46;;;;;;;15.27;12.85;;;;;;;;;;5082384;28;20376;-80
2023/09/28 08:21:12;;;;;;;16.17;12.80;;;;;;;;;;5060258;28;20756;-80
2023/09/28 08:23:38;;;;;;;15.52;11.55;;;;;;;;;;5075823;28;20411;-80
2023/09/28 08:26:04;;;;;;;16.75;11.80;;;;;;;;;;5083428;28;20384;-80
2023/09/28 08:28:31;;;;;;;18.15;12.63;;;;;;;;;;5079332;28;20384;-81
2023/09/28 08:30:57;;;;;;;15.32;12.27;;;;;;;;;;5079003;28;20509;-81
2023/09/28 08:33:23;;;;;;;14.60;11.95;;;;;;;;;;5069742;28;20409;-82
2023/09/28 08:35:50;;;;;;;16.83;12.07;;;;;;;;;;5081883;28;20393;-81
2023/09/28 08:38:17;;;;;;;14.65;11.98;;;;;;;;;;5081679;28;20405;-81
2023/09/28 08:40:43;;;;;;;16.17;12.10;;;;;;;;;;5078596;28;20391;-82
2023/09/28 08:43:12;;;;;;;16.92;11.90;;;;;;;;;;5080002;28;20419;-82
2023/09/28 08:45:41;;;;;;;16.67;11.50;;;;;;;;;;5078778;28;20760;-81
2023/09/28 08:48:11;;;;;;;21.10;12.15;;;;;;;;;;5079476;28;20395;-81
2023/09/28 08:50:39;;;;;;;15.88;11.50;;;;;;;;;;5078998;28;20419;-81
2023/09/28 08:53:05;;;;;;;15.65;12.30;;;;;;;;;;5071446;28;21230;-81
2023/09/28 08:55:34;;;;;;;13.70;11.05;;;;;;;;;;5066978;28;20849;-81
2023/09/28 08:58:01;;;;;;;12.15;10.85;;;;;;;;;;5081798;28;20380;-81
2023/09/28 09:00:28;;;;;;;14.15;11.77;;;;;;;;;;5079970;28;20872;-81
2023/09/28 09:02:58;;;;;;;15.23;11.82;;;;;;;;;;5081422;28;20399;-81
2023/09/28 09:05:29;;;;;;;17.77;13.02;;;;;;;;;;5078769;28;20392;-81
2023/09/28 09:07:56;;;;;;;20.05;14.30;;;;;;;;;;5079195;28;20444;-81
2023/09/28 09:10:23;;;;;;;21.25;15.77;;;;;;;;;;5087356;28;20384;-84
2023/09/28 09:12:49;;;;;;;23.88;15.27;;;;;;;;;;5062198;28;20426;-82
2023/09/28 09:15:17;;;;;;;13.60;11.40;;;;;;;;;;5079867;28;20391;-80
2023/09/28 09:17:44;;;;;;;15.93;10.98;;;;;;;;;;5079080;28;20384;-80
2023/09/28 09:20:10;;;;;;;9.07;7.90;;;;;;;;;;5080484;28;20380;-80
2023/09/28 09:22:36;;;;;;;8.55;7.70;;;;;;;;;;5063021;28;20403;-80
2023/09/28 09:25:03;;;;;;;8.32;7.47;;;;;;;;;;5071885;28;20383;-80
2023/09/28 09:27:31;;;;;;;13.40;9.03;;;;;;;;;;5078348;28;20391;-80
2023/09/28 09:30:05;;;;;;;10.57;9.02;;;;;;;;;;5077425;28;20395;-81
2023/09/28 09:32:31;;;;;;;9.85;8.20;;;;;;;;;;5069195;28;20947;-81
2023/09/28 09:35:00;;;;;;;9.23;7.68;;;;;;;;;;5077988;28;20388;-81
2023/09/28 09:37:26;;;;;;;8.20;6.95;;;;;;;;;;5078691;28;20399;-81
2023/09/28 09:39:52;;;;;;;9.20;7.85;;;;;;;;;;5077297;28;20383;-82
2023/09/28 09:42:27;;;;;;;8.82;7.93;;;;;;;;;;5081483;28;20394;-81
2023/09/28 09:44:56;;;;;;;9.15;7.40;;;;;;;;;;5074787;28;20418;-80
2023/09/28 09:47:22;;;;;;;8.32;7.35;;;;;;;;;;5079508;28;20394;-81
2023/09/28 09:49:49;;;;;;;15.15;11.43;;;;;;;;;;5082480;28;20395;-81
2023/09/28 09:52:19;;;;;;;7.53;6.78;;;;;;;;;;5072627;28;20456;-81
2023/09/28 09:54:47;;;;;;;6.95;5.97;;;;;;;;;;5075434;28;20380;-80
2023/09/28 09:57:16;;;;;;;7.60;6.90;;;;;;;;;;5077071;28;20459;-80
2023/09/28 09:59:47;;;;;;;7.80;6.55;;;;;;;;;;5076252;28;20440;-80
2023/09/28 10:02:33;;;;;;;12.60;9.00;;;;;;;;;;5076038;28;20415;-80
2023/09/28 10:05:00;;;;;;;7.68;6.45;;;;;;;;;;5074880;28;20398;-80
2023/09/28 10:07:29;;;;;;;15.75;9.85;;;;;;;;;;5075760;28;20466;-80
2023/09/28 10:09:55;;;;;;;12.93;10.15;;;;;;;;;;5057331;28;20741;-81
2023/09/28 10:12:22;;;;;;;10.68;8.95;;;;;;;;;;5078616;28;20378;-81
2023/09/28 10:14:48;;;;;;;8.40;6.53;;;;;;;;;;5077645;28;20387;-80
2023/09/28 10:17:14;;;;;;;7.95;6.15;;;;;;;;;;5078390;28;20386;-80
2023/09/28 10:19:40;;;;;;;9.48;7.05;;;;;;;;;;5078324;28;20466;-80
2023/09/28 10:22:06;;;;;;;8.40;7.03;;;;;;;;;;5078875;28;20371;-81
2023/09/28 10:24:34;;;;;;;7.32;6.50;;;;;;;;;;5077892;28;20419;-80
2023/09/28 10:27:10;;;;;;;8.18;6.00;;;;;;;;;;5085018;28;20376;-81
2023/09/28 10:29:40;;;;;;;6.53;5.78;;;;;;;;;;5078875;28;20421;-79
2023/09/28 10:32:25;;;;;;;6.70;5.50;;;;;;;;;;5076820;28;20459;-81
2023/09/28 10:35:11;;;;;;;9.88;6.78;;;;;;;;;;5071732;28;20391;-82
2023/09/28 10:37:37;;;;;;;7.03;5.43;;;;;;;;;;5079939;28;20391;-81
2023/09/28 10:40:05;;;;;;;6.07;5.47;;;;;;;;;;5076775;28;20387;-81
2023/09/28 10:42:31;;;;;;;9.80;7.07;;;;;;;;;;5078581;28;20395;-82
2023/09/28 10:44:57;;;;;;;7.25;5.88;;;;;;;;;;5061638;28;20476;-82
2023/09/28 10:47:24;;;;;;;5.82;4.95;;;;;;;;;;5080722;28;20395;-82
2023/09/28 10:49:59;;;;;;;5.28;4.60;;;;;;;;;;5080504;28;20384;-82
2023/09/28 10:52:28;;;;;;;5.87;4.93;;;;;;;;;;5079771;28;20426;-82
2023/09/28 10:54:55;;;;;;;5.45;4.95;;;;;;;;;;5079451;28;20383;-81
2023/09/28 10:57:28;;;;;;;6.70;6.00;;;;;;;;;;5080023;28;20486;-82
2023/09/28 11:00:01;;;;;;;8.25;7.45;;;;;;;;;;5080843;28;20384;-80
2023/09/28 11:02:27;;;;;;;9.13;7.50;;;;;;;;;;5080020;28;20425;-80
2023/09/28 11:04:56;;;;;;;7.88;5.40;;;;;;;;;;5079885;28;20416;-82
2023/09/28 11:07:22;;;;;;;6.30;5.40;;;;;;;;;;5080046;28;20411;-81
2023/09/28 11:09:49;;;;;;;7.55;5.20;;;;;;;;;;5080627;28;20391;-81
2023/09/28 11:12:15;;;;;;;6.50;4.80;;;;;;;;;;5081031;28;20387;-81
2023/09/28 11:14:44;;;;;;;6.73;5.20;;;;;;;;;;5075049;28;20404;-81
2023/09/28 11:17:10;;;;;;;13.70;8.65;;;;;;;;;;5076908;28;20391;-81
2023/09/28 11:19:36;;;;;;;12.40;8.27;;;;;;;;;;5078713;28;20368;-81
2023/09/28 11:22:02;;;;;;;5.30;4.80;;;;;;;;;;5081835;28;20391;-81
2023/09/28 11:24:28;;;;;;;7.32;6.03;;;;;;;;;;5079457;28;20423;-81
2023/09/28 11:26:56;;;;;;;7.05;5.90;;;;;;;;;;5078157;28;20415;-81
2023/09/28 11:29:25;;;;;;;7.07;5.65;;;;;;;;;;5083095;28;20394;-81
2023/09/28 11:31:53;;;;;;;6.50;5.10;;;;;;;;;;5061130;28;20917;-82
2023/09/28 11:34:33;;;;;;;6.47;5.75;;;;;;;;;;5079318;28;20388;-81
2023/09/28 11:36:59;;;;;;;4.82;4.15;;;;;;;;;;5081063;28;20470;-81
2023/09/28 11:39:26;;;;;;;5.05;3.97;;;;;;;;;;5079206;28;20911;-82
2023/09/28 11:41:56;;;;;;;5.00;4.50;;;;;;;;;;5078602;28;20457;-82
2023/09/28 11:44:22;;;;;;;7.30;4.70;;;;;;;;;;5074741;28;20779;-82
2023/09/28 11:46:48;;;;;;;9.30;5.60;;;;;;;;;;5079658;28;20718;-82
2023/09/28 11:49:16;;;;;;;5.68;4.32;;;;;;;;;;5079105;28;20699;-82
2023/09/28 11:51:42;;;;;;;5.82;5.30;;;;;;;;;;5093013;28;20418;-82
2023/09/28 11:54:09;;;;;;;8.10;4.32;;;;;;;;;;5068938;28;20395;-82
2023/09/28 11:56:36;;;;;;;4.63;3.92;;;;;;;;;;5078143;28;20423;-80
2023/09/28 11:59:02;;;;;;;4.65;4.00;;;;;;;;;;5091089;28;20376;-82
2023/09/28 12:01:29;;;;;;;4.78;3.92;;;;;;;;;;5078465;28;20384;-82
2023/09/28 12:03:57;;;;;;;6.07;3.40;;;;;;;;;;5078980;28;20403;-81
2023/09/28 12:06:23;;;;;;;4.72;3.70;;;;;;;;;;5078896;28;20998;-82
2023/09/28 12:08:49;;;;;;;5.40;4.65;;;;;;;;;;5079498;28;20383;-82
2023/09/28 12:11:15;;;;;;;5.80;5.00;;;;;;;;;;5077392;28;20462;-82
2023/09/28 12:13:41;;;;;;;7.05;5.93;;;;;;;;;;5086269;28;20386;-80
2023/09/28 12:16:07;;;;;;;5.72;4.20;;;;;;;;;;5077333;28;20400;-82
2023/09/28 12:18:33;;;;;;;4.30;3.90;;;;;;;;;;5078984;28;20399;-82
2023/09/28 12:20:59;;;;;;;4.30;3.60;;;;;;;;;;5078122;28;20376;-82
2023/09/28 12:23:26;;;;;;;4.30;3.60;;;;;;;;;;5079323;28;20490;-82
2023/09/28 12:25:52;;;;;;;3.80;3.50;;;;;;;;;;5096861;22;21153;-85
2023/09/28 12:28:18;;;;;;;3.95;3.40;;;;;;;;;;5058590;28;20408;-84
2023/09/28 12:30:44;;;;;;;3.90;3.40;;;;;;;;;;5058468;28;20381;-85
2023/09/28 12:33:11;;;;;;;3.30;3.00;;;;;;;;;;5037495;28;20489;-85
2023/09/28 12:35:39;;;;;;;4.10;3.70;;;;;;;;;;5056563;28;20547;-85
2023/09/28 12:38:05;;;;;;;3.90;3.40;;;;;;;;;;5057135;28;20398;-85
2023/09/28 12:40:32;;;;;;;3.88;3.47;;;;;;;;;;5051936;28;20461;-85
2023/09/28 12:42:59;;;;;;;6.65;3.78;;;;;;;;;;5056892;28;20737;-84
2023/09/28 12:45:25;;;;;;;3.80;3.13;;;;;;;;;;5052826;28;20515;-85
2023/09/28 12:47:51;;;;;;;4.15;3.17;;;;;;;;;;5054948;28;20408;-85
2023/09/28 12:50:18;;;;;;;3.72;3.42;;;;;;;;;;5057565;28;20385;-84
2023/09/28 12:52:44;;;;;;;4.97;3.30;;;;;;;;;;5057661;28;20523;-84
2023/09/28 12:55:10;;;;;;;4.15;3.67;;;;;;;;;;5056792;28;20401;-84
2023/09/28 12:57:36;;;;;;;3.47;3.17;;;;;;;;;;5039749;28;20382;-84
2023/09/28 13:00:08;;;;;;;3.55;3.25;;;;;;;;;;5038680;28;20385;-85
2023/09/28 13:02:34;;;;;;;3.53;3.22;;;;;;;;;;5057891;28;20397;-84
2023/09/28 13:05:01;;;;;;;3.47;2.97;;;;;;;;;;5057570;28;20515;-84
2023/09/28 13:07:27;;;;;;;3.60;3.20;;;;;;;;;;5058160;28;20450;-83
2023/09/28 13:09:53;;;;;;;3.78;3.47;;;;;;;;;;5056160;28;20382;-84
2023/09/28 13:12:19;;;;;;;3.90;3.50;;;;;;;;;;5055150;28;20744;-84
2023/09/28 13:14:46;;;;;;;3.67;3.08;;;;;;;;;;5056740;28;20409;-84
2023/09/28 13:17:11;;;;;;;4.15;3.60;;;;;;;;;;5054456;28;20481;-84
2023/09/28 13:19:40;;;;;;;3.42;2.85;;;;;;;;;;5055152;28;20417;-83
2023/09/28 13:22:06;;;;;;;6.03;3.22;;;;;;;;;;5054268;28;20466;-82
2023/09/28 13:24:32;;;;;;;3.35;3.05;;;;;;;;;;5055368;28;20497;-84
2023/09/28 13:27:01;;;;;;;2.97;2.67;;;;;;;;;;5031656;28;20382;-84
2023/09/28 13:29:27;;;;;;;3.78;3.30;;;;;;;;;;5049203;28;20381;-84
2023/09/28 13:31:54;;;;;;;3.90;3.50;;;;;;;;;;5050623;28;20375;-84
2023/09/28 13:34:20;;;;;;;3.50;3.20;;;;;;;;;;5050393;28;20500;-84
2023/09/28 13:36:46;;;;;;;4.60;4.00;;;;;;;;;;5050728;28;21110;-85
2023/09/28 13:39:28;;;;;;;4.50;3.63;;;;;;;;;;5050804;28;20519;-84
2023/09/28 13:41:57;;;;;;;5.18;4.10;;;;;;;;;;5040383;28;20522;-84
2023/09/28 13:44:23;;;;;;;4.03;3.63;;;;;;;;;;5054139;28;20403;-84
2023/09/28 13:46:53;;;;;;;3.70;3.40;;;;;;;;;;5051142;28;20381;-84
2023/09/28 13:49:19;;;;;;;3.10;2.80;;;;;;;;;;5055715;28;20394;-84
2023/09/28 13:51:47;;;;;;;3.60;2.92;;;;;;;;;;5054192;28;20404;-84
2023/09/28 13:54:13;;;;;;;3.60;3.30;;;;;;;;;;5054448;28;20895;-84
2023/09/28 13:56:39;;;;;;;3.90;3.10;;;;;;;;;;5054549;28;20392;-84
2023/09/28 13:59:09;;;;;;;3.53;2.40;;;;;;;;;;5053739;28;20788;-84
2023/09/28 14:01:36;;;;;;;3.05;2.72;;;;;;;;;;5054106;28;20377;-84
2023/09/28 14:04:03;;;;;;;3.30;2.75;;;;;;;;;;5054123;28;20393;-84
2023/09/28 14:06:28;;;;;;;3.60;3.30;;;;;;;;;;5061392;28;20371;-84
2023/09/28 14:08:57;;;;;;;3.40;3.10;;;;;;;;;;5055858;28;20393;-84
2023/09/28 14:11:23;;;;;;;3.30;3.00;;;;;;;;;;5054365;28;20388;-84
2023/09/28 14:13:49;;;;;;;2.70;2.50;;;;;;;;;;5053497;28;22125;-84
2023/09/28 14:16:15;;;;;;;7.70;3.20;;;;;;;;;;5054357;28;20389;-84
2023/09/28 14:18:41;;;;;;;2.85;2.65;;;;;;;;;;5054106;28;20431;-84
2023/09/28 14:21:07;;;;;;;3.85;3.40;;;;;;;;;;5053716;28;20400;-84
2023/09/28 14:23:33;;;;;;;4.13;3.53;;;;;;;;;;5053642;28;20369;-84
2023/09/28 14:25:59;;;;;;;6.70;5.80;;;;;;;;;;5052452;28;20731;-84
2023/09/28 14:28:25;;;;;;;5.70;4.70;;;;;;;;;;5057225;28;20459;-84
2023/09/28 14:30:52;;;;;;;5.80;5.00;;;;;;;;;;5056477;28;20835;-84
2023/09/28 14:33:18;;;;;;;6.50;5.40;;;;;;;;;;5053282;28;20415;-85
2023/09/28 14:35:44;;;;;;;5.95;5.35;;;;;;;;;;5053143;28;20469;-84
2023/09/28 14:38:10;;;;;;;6.55;5.72;;;;;;;;;;5053695;28;20420;-84
2023/09/28 14:40:37;;;;;;;7.00;5.80;;;;;;;;;;5053709;28;20728;-84
2023/09/28 14:43:03;;;;;;;7.30;5.18;;;;;;;;;;5053964;28;20378;-84